sensor_id;sensor_type;location;lat;lon;timestamp;P1;durP1;ratioP1;P2;durP2;ratioP2
75793;SDS011;64418;47.536;19.074;2022-11-14T00:02:03;42.72;;;14.15;;
75793;SDS011;64418;47.536;19.074;2022-11-14T00:04:29;27.52;;;13.02;;
75793;SDS011;64418;47.536;19.074;2022-11-14T00:06:55;44.10;;;14.13;;
75793;SDS011;64418;47.536;19.074;2022-11-14T00:09:23;49.40;;;13.47;;
75793;SDS011;64418;47.536;19.074;2022-11-14T00:11:50;57.33;;;12.77;;
75793;SDS011;64418;47.536;19.074;2022-11-14T00:14:16;43.53;;;12.75;;
75793;SDS011;64418;47.536;19.074;2022-11-14T00:16:41;41.53;;;13.13;;
75793;SDS011;64418;47.536;19.074;2022-11-14T00:19:07;41.00;;;13.48;;
75793;SDS011;64418;47.536;19.074;2022-11-14T00:21:36;39.13;;;12.30;;
75793;SDS011;64418;47.536;19.074;2022-11-14T00:24:02;32.35;;;12.93;;
75793;SDS011;64418;47.536;19.074;2022-11-14T00:26:29;34.40;;;12.20;;
75793;SDS011;64418;47.536;19.074;2022-11-14T00:28:56;39.95;;;12.30;;
75793;SDS011;64418;47.536;19.074;2022-11-14T00:31:22;33.67;;;14.40;;
75793;SDS011;64418;47.536;19.074;2022-11-14T00:33:48;49.70;;;13.40;;
75793;SDS011;64418;47.536;19.074;2022-11-14T00:36:14;34.20;;;13.98;;
75793;SDS011;64418;47.536;19.074;2022-11-14T00:38:39;33.37;;;12.70;;
75793;SDS011;64418;47.536;19.074;2022-11-14T00:41:05;48.40;;;14.63;;
75793;SDS011;64418;47.536;19.074;2022-11-14T00:43:31;42.62;;;14.55;;
75793;SDS011;64418;47.536;19.074;2022-11-14T00:45:58;38.97;;;13.00;;
75793;SDS011;64418;47.536;19.074;2022-11-14T00:48:23;45.35;;;13.95;;
75793;SDS011;64418;47.536;19.074;2022-11-14T00:50:49;33.33;;;13.27;;
75793;SDS011;64418;47.536;19.074;2022-11-14T00:53:15;54.42;;;14.23;;
75793;SDS011;64418;47.536;19.074;2022-11-14T00:55:41;55.03;;;13.80;;
75793;SDS011;64418;47.536;19.074;2022-11-14T00:58:07;44.83;;;12.45;;
75793;SDS011;64418;47.536;19.074;2022-11-14T01:00:33;43.28;;;14.23;;
75793;SDS011;64418;47.536;19.074;2022-11-14T01:03:00;47.90;;;13.50;;
75793;SDS011;64418;47.536;19.074;2022-11-14T01:05:27;68.18;;;13.98;;
75793;SDS011;64418;47.536;19.074;2022-11-14T01:07:52;50.73;;;12.90;;
75793;SDS011;64418;47.536;19.074;2022-11-14T01:10:19;41.65;;;12.35;;
75793;SDS011;64418;47.536;19.074;2022-11-14T01:12:45;58.97;;;14.00;;
75793;SDS011;64418;47.536;19.074;2022-11-14T01:15:10;38.90;;;12.17;;
75793;SDS011;64418;47.536;19.074;2022-11-14T01:17:38;44.13;;;13.43;;
75793;SDS011;64418;47.536;19.074;2022-11-14T01:20:05;29.27;;;13.50;;
75793;SDS011;64418;47.536;19.074;2022-11-14T01:22:31;23.83;;;12.20;;
75793;SDS011;64418;47.536;19.074;2022-11-14T01:24:58;31.37;;;12.18;;
75793;SDS011;64418;47.536;19.074;2022-11-14T01:27:23;45.60;;;13.43;;
75793;SDS011;64418;47.536;19.074;2022-11-14T01:29:50;56.22;;;13.93;;
75793;SDS011;64418;47.536;19.074;2022-11-14T01:32:16;43.35;;;14.73;;
75793;SDS011;64418;47.536;19.074;2022-11-14T01:34:41;32.50;;;13.03;;
75793;SDS011;64418;47.536;19.074;2022-11-14T01:37:09;77.65;;;13.77;;
75793;SDS011;64418;47.536;19.074;2022-11-14T01:39:35;70.05;;;13.38;;
75793;SDS011;64418;47.536;19.074;2022-11-14T01:42:00;45.93;;;14.10;;
75793;SDS011;64418;47.536;19.074;2022-11-14T01:44:37;31.85;;;13.35;;
75793;SDS011;64418;47.536;19.074;2022-11-14T01:47:06;72.45;;;14.57;;
75793;SDS011;64418;47.536;19.074;2022-11-14T01:49:39;50.73;;;14.80;;
75793;SDS011;64418;47.536;19.074;2022-11-14T01:52:10;34.30;;;14.57;;
75793;SDS011;64418;47.536;19.074;2022-11-14T01:54:40;39.58;;;14.10;;
75793;SDS011;64418;47.536;19.074;2022-11-14T01:57:09;44.65;;;14.10;;
75793;SDS011;64418;47.536;19.074;2022-11-14T01:59:40;78.70;;;14.20;;
75793;SDS011;64418;47.536;19.074;2022-11-14T02:02:09;30.52;;;13.05;;
75793;SDS011;64418;47.536;19.074;2022-11-14T02:04:42;33.33;;;13.15;;
75793;SDS011;64418;47.536;19.074;2022-11-14T02:07:11;41.08;;;13.73;;
75793;SDS011;64418;47.536;19.074;2022-11-14T02:09:40;54.78;;;13.93;;
75793;SDS011;64418;47.536;19.074;2022-11-14T02:12:10;38.50;;;15.03;;
75793;SDS011;64418;47.536;19.074;2022-11-14T02:14:39;33.65;;;12.45;;
75793;SDS011;64418;47.536;19.074;2022-11-14T02:17:06;31.27;;;12.98;;
75793;SDS011;64418;47.536;19.074;2022-11-14T02:19:40;37.38;;;13.00;;
75793;SDS011;64418;47.536;19.074;2022-11-14T02:22:10;38.33;;;12.52;;
75793;SDS011;64418;47.536;19.074;2022-11-14T02:24:36;23.37;;;11.40;;
75793;SDS011;64418;47.536;19.074;2022-11-14T02:27:02;37.35;;;11.50;;
75793;SDS011;64418;47.536;19.074;2022-11-14T02:29:30;28.48;;;11.35;;
75793;SDS011;64418;47.536;19.074;2022-11-14T02:31:57;36.65;;;11.20;;
75793;SDS011;64418;47.536;19.074;2022-11-14T02:34:23;35.43;;;10.33;;
75793;SDS011;64418;47.536;19.074;2022-11-14T02:36:49;35.97;;;11.00;;
75793;SDS011;64418;47.536;19.074;2022-11-14T02:39:17;21.27;;;9.27;;
75793;SDS011;64418;47.536;19.074;2022-11-14T02:41:43;56.25;;;11.32;;
75793;SDS011;64418;47.536;19.074;2022-11-14T02:44:08;19.90;;;9.00;;
75793;SDS011;64418;47.536;19.074;2022-11-14T02:46:34;20.95;;;9.98;;
75793;SDS011;64418;47.536;19.074;2022-11-14T02:49:00;27.77;;;9.93;;
75793;SDS011;64418;47.536;19.074;2022-11-14T02:51:26;37.22;;;11.80;;
75793;SDS011;64418;47.536;19.074;2022-11-14T02:53:52;28.27;;;10.53;;
75793;SDS011;64418;47.536;19.074;2022-11-14T02:56:19;27.40;;;10.50;;
75793;SDS011;64418;47.536;19.074;2022-11-14T02:58:45;40.38;;;10.45;;
75793;SDS011;64418;47.536;19.074;2022-11-14T03:01:11;31.60;;;10.70;;
75793;SDS011;64418;47.536;19.074;2022-11-14T03:03:37;30.65;;;10.65;;
75793;SDS011;64418;47.536;19.074;2022-11-14T03:06:03;81.60;;;11.30;;
75793;SDS011;64418;47.536;19.074;2022-11-14T03:08:29;21.27;;;10.02;;
75793;SDS011;64418;47.536;19.074;2022-11-14T03:10:55;33.95;;;9.85;;
75793;SDS011;64418;47.536;19.074;2022-11-14T03:13:22;44.23;;;10.97;;
75793;SDS011;64418;47.536;19.074;2022-11-14T03:15:47;47.58;;;11.30;;
75793;SDS011;64418;47.536;19.074;2022-11-14T03:18:13;33.30;;;10.03;;
75793;SDS011;64418;47.536;19.074;2022-11-14T03:20:39;33.03;;;9.98;;
75793;SDS011;64418;47.536;19.074;2022-11-14T03:23:04;29.47;;;10.43;;
75793;SDS011;64418;47.536;19.074;2022-11-14T03:25:30;23.17;;;10.02;;
75793;SDS011;64418;47.536;19.074;2022-11-14T03:27:55;23.33;;;9.97;;
75793;SDS011;64418;47.536;19.074;2022-11-14T03:30:23;26.10;;;9.70;;
75793;SDS011;64418;47.536;19.074;2022-11-14T03:32:48;34.40;;;10.60;;
75793;SDS011;64418;47.536;19.074;2022-11-14T03:35:14;26.23;;;10.17;;
75793;SDS011;64418;47.536;19.074;2022-11-14T03:37:42;30.58;;;10.73;;
75793;SDS011;64418;47.536;19.074;2022-11-14T03:40:08;31.30;;;10.60;;
75793;SDS011;64418;47.536;19.074;2022-11-14T03:42:34;25.53;;;9.23;;
75793;SDS011;64418;47.536;19.074;2022-11-14T03:45:00;20.48;;;9.73;;
75793;SDS011;64418;47.536;19.074;2022-11-14T03:47:27;35.83;;;9.65;;
75793;SDS011;64418;47.536;19.074;2022-11-14T03:49:53;24.90;;;10.07;;
75793;SDS011;64418;47.536;19.074;2022-11-14T03:52:19;20.27;;;9.88;;
75793;SDS011;64418;47.536;19.074;2022-11-14T03:54:44;37.93;;;9.67;;
75793;SDS011;64418;47.536;19.074;2022-11-14T03:57:10;26.17;;;9.50;;
75793;SDS011;64418;47.536;19.074;2022-11-14T03:59:36;32.67;;;10.55;;
75793;SDS011;64418;47.536;19.074;2022-11-14T04:02:01;38.83;;;10.90;;
75793;SDS011;64418;47.536;19.074;2022-11-14T04:04:29;32.92;;;9.18;;
75793;SDS011;64418;47.536;19.074;2022-11-14T04:06:54;21.00;;;9.45;;
75793;SDS011;64418;47.536;19.074;2022-11-14T04:09:20;32.93;;;9.37;;
75793;SDS011;64418;47.536;19.074;2022-11-14T04:11:46;18.50;;;9.48;;
75793;SDS011;64418;47.536;19.074;2022-11-14T04:14:11;31.17;;;10.63;;
75793;SDS011;64418;47.536;19.074;2022-11-14T04:16:37;46.47;;;11.02;;
75793;SDS011;64418;47.536;19.074;2022-11-14T04:19:03;27.23;;;9.73;;
75793;SDS011;64418;47.536;19.074;2022-11-14T04:21:30;33.70;;;9.38;;
75793;SDS011;64418;47.536;19.074;2022-11-14T04:23:56;27.73;;;10.50;;
75793;SDS011;64418;47.536;19.074;2022-11-14T04:26:22;27.50;;;10.80;;
75793;SDS011;64418;47.536;19.074;2022-11-14T04:28:49;29.87;;;10.05;;
75793;SDS011;64418;47.536;19.074;2022-11-14T04:31:15;36.75;;;10.13;;
75793;SDS011;64418;47.536;19.074;2022-11-14T04:33:40;27.52;;;9.95;;
75793;SDS011;64418;47.536;19.074;2022-11-14T04:36:06;49.93;;;10.03;;
75793;SDS011;64418;47.536;19.074;2022-11-14T04:38:34;26.33;;;9.85;;
75793;SDS011;64418;47.536;19.074;2022-11-14T04:41:00;37.17;;;9.80;;
75793;SDS011;64418;47.536;19.074;2022-11-14T04:43:26;21.60;;;9.87;;
75793;SDS011;64418;47.536;19.074;2022-11-14T04:45:52;17.77;;;9.70;;
75793;SDS011;64418;47.536;19.074;2022-11-14T04:48:17;34.97;;;9.53;;
75793;SDS011;64418;47.536;19.074;2022-11-14T04:50:43;28.52;;;10.00;;
75793;SDS011;64418;47.536;19.074;2022-11-14T04:53:09;31.62;;;9.70;;
75793;SDS011;64418;47.536;19.074;2022-11-14T04:55:36;27.10;;;9.40;;
75793;SDS011;64418;47.536;19.074;2022-11-14T04:58:02;29.40;;;11.82;;
75793;SDS011;64418;47.536;19.074;2022-11-14T05:00:28;32.42;;;9.38;;
75793;SDS011;64418;47.536;19.074;2022-11-14T05:02:54;23.15;;;9.40;;
75793;SDS011;64418;47.536;19.074;2022-11-14T05:05:23;18.33;;;8.33;;
75793;SDS011;64418;47.536;19.074;2022-11-14T05:07:50;21.55;;;9.70;;
75793;SDS011;64418;47.536;19.074;2022-11-14T05:10:17;61.42;;;10.10;;
75793;SDS011;64418;47.536;19.074;2022-11-14T05:12:44;26.85;;;10.02;;
75793;SDS011;64418;47.536;19.074;2022-11-14T05:15:11;37.72;;;10.32;;
75793;SDS011;64418;47.536;19.074;2022-11-14T05:17:37;23.53;;;9.43;;
75793;SDS011;64418;47.536;19.074;2022-11-14T05:20:02;15.25;;;8.60;;
75793;SDS011;64418;47.536;19.074;2022-11-14T05:22:29;35.97;;;9.57;;
75793;SDS011;64418;47.536;19.074;2022-11-14T05:24:55;25.07;;;8.40;;
75793;SDS011;64418;47.536;19.074;2022-11-14T05:27:20;34.00;;;9.40;;
75793;SDS011;64418;47.536;19.074;2022-11-14T05:29:47;27.67;;;9.47;;
75793;SDS011;64418;47.536;19.074;2022-11-14T05:32:14;43.47;;;9.48;;
75793;SDS011;64418;47.536;19.074;2022-11-14T05:34:40;43.80;;;9.73;;
75793;SDS011;64418;47.536;19.074;2022-11-14T05:37:05;36.90;;;9.47;;
75793;SDS011;64418;47.536;19.074;2022-11-14T05:39:31;33.13;;;10.32;;
75793;SDS011;64418;47.536;19.074;2022-11-14T05:41:58;21.33;;;10.43;;
75793;SDS011;64418;47.536;19.074;2022-11-14T05:44:23;39.17;;;10.33;;
75793;SDS011;64418;47.536;19.074;2022-11-14T05:46:50;26.17;;;9.90;;
75793;SDS011;64418;47.536;19.074;2022-11-14T05:49:17;23.53;;;9.73;;
75793;SDS011;64418;47.536;19.074;2022-11-14T05:51:43;25.25;;;10.82;;
75793;SDS011;64418;47.536;19.074;2022-11-14T05:54:08;23.52;;;9.98;;
75793;SDS011;64418;47.536;19.074;2022-11-14T05:56:34;16.13;;;9.13;;
75793;SDS011;64418;47.536;19.074;2022-11-14T05:59:00;21.70;;;8.88;;
75793;SDS011;64418;47.536;19.074;2022-11-14T06:01:26;26.33;;;8.93;;
75793;SDS011;64418;47.536;19.074;2022-11-14T06:03:53;23.85;;;9.40;;
75793;SDS011;64418;47.536;19.074;2022-11-14T06:06:19;20.70;;;10.10;;
75793;SDS011;64418;47.536;19.074;2022-11-14T06:08:46;18.08;;;8.82;;
75793;SDS011;64418;47.536;19.074;2022-11-14T06:11:12;27.37;;;10.15;;
75793;SDS011;64418;47.536;19.074;2022-11-14T06:13:39;17.77;;;10.00;;
75793;SDS011;64418;47.536;19.074;2022-11-14T06:16:06;22.50;;;10.05;;
75793;SDS011;64418;47.536;19.074;2022-11-14T06:18:34;19.52;;;10.13;;
75793;SDS011;64418;47.536;19.074;2022-11-14T06:21:03;16.08;;;10.07;;
75793;SDS011;64418;47.536;19.074;2022-11-14T06:23:31;20.35;;;10.75;;
75793;SDS011;64418;47.536;19.074;2022-11-14T06:25:57;21.87;;;10.33;;
75793;SDS011;64418;47.536;19.074;2022-11-14T06:28:23;20.45;;;9.73;;
75793;SDS011;64418;47.536;19.074;2022-11-14T06:30:49;18.52;;;9.35;;
75793;SDS011;64418;47.536;19.074;2022-11-14T06:33:14;16.23;;;9.83;;
75793;SDS011;64418;47.536;19.074;2022-11-14T06:35:40;22.80;;;9.95;;
75793;SDS011;64418;47.536;19.074;2022-11-14T06:38:09;18.83;;;10.67;;
75793;SDS011;64418;47.536;19.074;2022-11-14T06:40:35;17.75;;;10.90;;
75793;SDS011;64418;47.536;19.074;2022-11-14T06:43:01;16.00;;;9.48;;
75793;SDS011;64418;47.536;19.074;2022-11-14T06:45:26;24.33;;;14.80;;
75793;SDS011;64418;47.536;19.074;2022-11-14T06:47:52;18.60;;;9.57;;
75793;SDS011;64418;47.536;19.074;2022-11-14T06:50:21;20.50;;;9.30;;
75793;SDS011;64418;47.536;19.074;2022-11-14T06:52:47;20.98;;;9.77;;
75793;SDS011;64418;47.536;19.074;2022-11-14T06:55:14;20.67;;;9.98;;
75793;SDS011;64418;47.536;19.074;2022-11-14T06:57:40;35.33;;;10.13;;
75793;SDS011;64418;47.536;19.074;2022-11-14T07:00:07;20.37;;;10.27;;
75793;SDS011;64418;47.536;19.074;2022-11-14T07:02:33;39.17;;;11.12;;
75793;SDS011;64418;47.536;19.074;2022-11-14T07:04:59;37.83;;;11.83;;
75793;SDS011;64418;47.536;19.074;2022-11-14T07:07:24;31.70;;;15.32;;
75793;SDS011;64418;47.536;19.074;2022-11-14T07:09:50;24.33;;;14.90;;
75793;SDS011;64418;47.536;19.074;2022-11-14T07:12:18;26.87;;;14.35;;
75793;SDS011;64418;47.536;19.074;2022-11-14T07:14:43;23.35;;;11.77;;
75793;SDS011;64418;47.536;19.074;2022-11-14T07:17:09;26.47;;;11.10;;
75793;SDS011;64418;47.536;19.074;2022-11-14T07:19:37;28.23;;;10.40;;
75793;SDS011;64418;47.536;19.074;2022-11-14T07:22:05;22.80;;;10.27;;
75793;SDS011;64418;47.536;19.074;2022-11-14T07:24:31;21.08;;;10.98;;
75793;SDS011;64418;47.536;19.074;2022-11-14T07:26:58;26.13;;;10.07;;
75793;SDS011;64418;47.536;19.074;2022-11-14T07:29:26;16.73;;;8.90;;
75793;SDS011;64418;47.536;19.074;2022-11-14T07:31:51;19.02;;;9.93;;
75793;SDS011;64418;47.536;19.074;2022-11-14T07:34:17;24.92;;;10.32;;
75793;SDS011;64418;47.536;19.074;2022-11-14T07:36:43;22.05;;;10.32;;
75793;SDS011;64418;47.536;19.074;2022-11-14T07:39:09;22.63;;;11.67;;
75793;SDS011;64418;47.536;19.074;2022-11-14T07:41:35;28.67;;;13.70;;
75793;SDS011;64418;47.536;19.074;2022-11-14T07:44:02;20.10;;;9.70;;
75793;SDS011;64418;47.536;19.074;2022-11-14T07:46:29;19.87;;;10.10;;
75793;SDS011;64418;47.536;19.074;2022-11-14T07:48:55;15.90;;;8.60;;
75793;SDS011;64418;47.536;19.074;2022-11-14T07:51:21;19.20;;;9.68;;
75793;SDS011;64418;47.536;19.074;2022-11-14T07:53:47;20.37;;;10.67;;
75793;SDS011;64418;47.536;19.074;2022-11-14T07:56:15;19.33;;;10.52;;
75793;SDS011;64418;47.536;19.074;2022-11-14T07:58:41;21.45;;;11.07;;
75793;SDS011;64418;47.536;19.074;2022-11-14T08:01:08;18.60;;;11.17;;
75793;SDS011;64418;47.536;19.074;2022-11-14T08:03:37;19.50;;;11.70;;
75793;SDS011;64418;47.536;19.074;2022-11-14T08:06:05;22.67;;;11.68;;
75793;SDS011;64418;47.536;19.074;2022-11-14T08:08:32;22.92;;;11.30;;
75793;SDS011;64418;47.536;19.074;2022-11-14T08:10:59;21.58;;;11.57;;
75793;SDS011;64418;47.536;19.074;2022-11-14T08:13:25;19.90;;;10.20;;
75793;SDS011;64418;47.536;19.074;2022-11-14T08:15:52;19.27;;;11.10;;
75793;SDS011;64418;47.536;19.074;2022-11-14T08:18:18;20.75;;;10.82;;
75793;SDS011;64418;47.536;19.074;2022-11-14T08:20:46;20.30;;;11.55;;
75793;SDS011;64418;47.536;19.074;2022-11-14T08:23:11;23.65;;;12.50;;
75793;SDS011;64418;47.536;19.074;2022-11-14T08:25:38;25.33;;;12.27;;
75793;SDS011;64418;47.536;19.074;2022-11-14T08:28:04;23.38;;;12.77;;
75793;SDS011;64418;47.536;19.074;2022-11-14T08:30:31;22.15;;;12.15;;
75793;SDS011;64418;47.536;19.074;2022-11-14T08:32:59;27.45;;;15.23;;
75793;SDS011;64418;47.536;19.074;2022-11-14T08:35:26;28.90;;;18.17;;
75793;SDS011;64418;47.536;19.074;2022-11-14T08:37:53;24.77;;;14.63;;
75793;SDS011;64418;47.536;19.074;2022-11-14T08:40:19;23.70;;;13.82;;
75793;SDS011;64418;47.536;19.074;2022-11-14T08:42:48;21.70;;;12.82;;
75793;SDS011;64418;47.536;19.074;2022-11-14T08:45:14;21.30;;;11.90;;
75793;SDS011;64418;47.536;19.074;2022-11-14T08:47:40;21.63;;;12.13;;
75793;SDS011;64418;47.536;19.074;2022-11-14T08:50:09;21.25;;;13.05;;
75793;SDS011;64418;47.536;19.074;2022-11-14T08:53:27;23.40;;;12.88;;
75793;SDS011;64418;47.536;19.074;2022-11-14T08:55:53;20.60;;;12.40;;
75793;SDS011;64418;47.536;19.074;2022-11-14T08:58:19;23.53;;;13.30;;
75793;SDS011;64418;47.536;19.074;2022-11-14T09:00:45;23.45;;;12.80;;
75793;SDS011;64418;47.536;19.074;2022-11-14T09:03:11;26.60;;;13.50;;
75793;SDS011;64418;47.536;19.074;2022-11-14T09:05:37;23.27;;;13.27;;
75793;SDS011;64418;47.536;19.074;2022-11-14T09:08:04;22.57;;;12.43;;
75793;SDS011;64418;47.536;19.074;2022-11-14T09:10:31;22.33;;;12.65;;
75793;SDS011;64418;47.536;19.074;2022-11-14T09:12:58;24.30;;;13.32;;
75793;SDS011;64418;47.536;19.074;2022-11-14T09:15:26;23.60;;;13.27;;
75793;SDS011;64418;47.536;19.074;2022-11-14T09:17:52;24.85;;;14.48;;
75793;SDS011;64418;47.536;19.074;2022-11-14T09:20:17;24.53;;;14.13;;
75793;SDS011;64418;47.536;19.074;2022-11-14T09:22:44;27.35;;;13.98;;
75793;SDS011;64418;47.536;19.074;2022-11-14T09:25:10;27.67;;;13.65;;
75793;SDS011;64418;47.536;19.074;2022-11-14T09:27:38;27.87;;;13.65;;
75793;SDS011;64418;47.536;19.074;2022-11-14T09:30:04;22.87;;;12.77;;
75793;SDS011;64418;47.536;19.074;2022-11-14T09:32:31;19.60;;;12.18;;
75793;SDS011;64418;47.536;19.074;2022-11-14T09:34:57;25.12;;;13.43;;
75793;SDS011;64418;47.536;19.074;2022-11-14T09:37:23;25.10;;;13.93;;
75793;SDS011;64418;47.536;19.074;2022-11-14T09:39:50;22.67;;;13.38;;
75793;SDS011;64418;47.536;19.074;2022-11-14T09:42:20;21.52;;;13.38;;
75793;SDS011;64418;47.536;19.074;2022-11-14T09:44:57;22.50;;;13.57;;
75793;SDS011;64418;47.536;19.074;2022-11-14T09:47:24;23.92;;;13.23;;
75793;SDS011;64418;47.536;19.074;2022-11-14T09:49:54;23.00;;;11.83;;
75793;SDS011;64418;47.536;19.074;2022-11-14T09:52:25;25.58;;;14.77;;
75793;SDS011;64418;47.536;19.074;2022-11-14T09:54:57;22.60;;;13.50;;
75793;SDS011;64418;47.536;19.074;2022-11-14T09:57:26;23.15;;;12.75;;
75793;SDS011;64418;47.536;19.074;2022-11-14T09:59:53;22.33;;;13.20;;
75793;SDS011;64418;47.536;19.074;2022-11-14T10:02:32;21.17;;;12.87;;
75793;SDS011;64418;47.536;19.074;2022-11-14T10:05:10;22.45;;;13.05;;
75793;SDS011;64418;47.536;19.074;2022-11-14T10:07:45;23.27;;;12.43;;
75793;SDS011;64418;47.536;19.074;2022-11-14T10:10:33;27.55;;;13.05;;
75793;SDS011;64418;47.536;19.074;2022-11-14T10:13:14;24.33;;;13.23;;
75793;SDS011;64418;47.536;19.074;2022-11-14T10:15:51;22.13;;;13.10;;
75793;SDS011;64418;47.536;19.074;2022-11-14T10:18:32;21.08;;;12.43;;
75793;SDS011;64418;47.536;19.074;2022-11-14T10:21:12;21.02;;;13.35;;
75793;SDS011;64418;47.536;19.074;2022-11-14T10:23:52;19.05;;;11.85;;
75793;SDS011;64418;47.536;19.074;2022-11-14T10:26:27;22.37;;;13.07;;
75793;SDS011;64418;47.536;19.074;2022-11-14T10:28:58;21.90;;;12.87;;
75793;SDS011;64418;47.536;19.074;2022-11-14T10:31:51;20.73;;;12.10;;
75793;SDS011;64418;47.536;19.074;2022-11-14T10:34:27;23.58;;;13.50;;
75793;SDS011;64418;47.536;19.074;2022-11-14T10:37:00;23.30;;;12.75;;
75793;SDS011;64418;47.536;19.074;2022-11-14T10:39:30;21.30;;;12.30;;
75793;SDS011;64418;47.536;19.074;2022-11-14T10:42:08;21.83;;;13.10;;
75793;SDS011;64418;47.536;19.074;2022-11-14T10:44:40;23.50;;;12.90;;
75793;SDS011;64418;47.536;19.074;2022-11-14T10:47:13;22.35;;;13.77;;
75793;SDS011;64418;47.536;19.074;2022-11-14T10:49:43;20.88;;;13.18;;
75793;SDS011;64418;47.536;19.074;2022-11-14T10:52:16;23.12;;;14.27;;
75793;SDS011;64418;47.536;19.074;2022-11-14T10:54:45;24.50;;;13.70;;
75793;SDS011;64418;47.536;19.074;2022-11-14T10:57:18;24.80;;;13.35;;
75793;SDS011;64418;47.536;19.074;2022-11-14T10:59:45;23.10;;;12.82;;
75793;SDS011;64418;47.536;19.074;2022-11-14T11:02:11;25.57;;;14.57;;
75793;SDS011;64418;47.536;19.074;2022-11-14T11:04:37;24.77;;;14.77;;
75793;SDS011;64418;47.536;19.074;2022-11-14T11:07:19;22.75;;;13.20;;
75793;SDS011;64418;47.536;19.074;2022-11-14T11:09:47;23.27;;;13.50;;
75793;SDS011;64418;47.536;19.074;2022-11-14T11:12:24;20.23;;;12.55;;
75793;SDS011;64418;47.536;19.074;2022-11-14T11:15:09;20.90;;;13.00;;
75793;SDS011;64418;47.536;19.074;2022-11-14T11:17:41;24.17;;;13.73;;
75793;SDS011;64418;47.536;19.074;2022-11-14T11:20:30;23.40;;;14.13;;
75793;SDS011;64418;47.536;19.074;2022-11-14T11:23:02;23.30;;;13.62;;
75793;SDS011;64418;47.536;19.074;2022-11-14T11:25:29;21.45;;;13.55;;
75793;SDS011;64418;47.536;19.074;2022-11-14T11:28:03;21.00;;;13.13;;
75793;SDS011;64418;47.536;19.074;2022-11-14T11:30:30;25.48;;;15.32;;
75793;SDS011;64418;47.536;19.074;2022-11-14T11:32:56;26.12;;;13.62;;
75793;SDS011;64418;47.536;19.074;2022-11-14T11:35:47;26.90;;;13.98;;
75793;SDS011;64418;47.536;19.074;2022-11-14T11:38:16;23.27;;;13.40;;
75793;SDS011;64418;47.536;19.074;2022-11-14T11:40:43;21.73;;;12.73;;
75793;SDS011;64418;47.536;19.074;2022-11-14T11:43:13;21.42;;;13.50;;
75793;SDS011;64418;47.536;19.074;2022-11-14T11:45:46;22.02;;;13.68;;
75793;SDS011;64418;47.536;19.074;2022-11-14T11:48:16;22.52;;;13.45;;
75793;SDS011;64418;47.536;19.074;2022-11-14T11:50:43;20.67;;;12.90;;
75793;SDS011;64418;47.536;19.074;2022-11-14T11:53:13;20.83;;;12.90;;
75793;SDS011;64418;47.536;19.074;2022-11-14T11:55:47;22.17;;;13.68;;
75793;SDS011;64418;47.536;19.074;2022-11-14T11:58:18;20.35;;;13.50;;
75793;SDS011;64418;47.536;19.074;2022-11-14T12:00:49;20.52;;;13.25;;
75793;SDS011;64418;47.536;19.074;2022-11-14T12:03:16;26.08;;;13.62;;
75793;SDS011;64418;47.536;19.074;2022-11-14T12:05:45;22.97;;;13.87;;
75793;SDS011;64418;47.536;19.074;2022-11-14T12:08:23;23.85;;;14.02;;
75793;SDS011;64418;47.536;19.074;2022-11-14T12:10:54;21.67;;;13.13;;
75793;SDS011;64418;47.536;19.074;2022-11-14T12:13:32;23.42;;;13.90;;
75793;SDS011;64418;47.536;19.074;2022-11-14T12:16:20;22.05;;;14.68;;
75793;SDS011;64418;47.536;19.074;2022-11-14T12:19:21;22.77;;;14.37;;
75793;SDS011;64418;47.536;19.074;2022-11-14T12:30:51;24.12;;;15.43;;
75793;SDS011;64418;47.536;19.074;2022-11-14T12:33:24;25.20;;;16.77;;
75793;SDS011;64418;47.536;19.074;2022-11-14T12:35:54;32.22;;;16.55;;
75793;SDS011;64418;47.536;19.074;2022-11-14T12:38:22;27.50;;;16.35;;
75793;SDS011;64418;47.536;19.074;2022-11-14T12:40:49;26.83;;;16.45;;
75793;SDS011;64418;47.536;19.074;2022-11-14T12:43:29;22.23;;;13.80;;
75793;SDS011;64418;47.536;19.074;2022-11-14T12:46:00;28.57;;;13.43;;
75793;SDS011;64418;47.536;19.074;2022-11-14T12:48:29;24.92;;;13.65;;
75793;SDS011;64418;47.536;19.074;2022-11-14T12:51:46;29.95;;;12.48;;
75793;SDS011;64418;47.536;19.074;2022-11-14T12:57:07;26.08;;;13.93;;
75793;SDS011;64418;47.536;19.074;2022-11-14T12:59:48;26.70;;;13.80;;
75793;SDS011;64418;47.536;19.074;2022-11-14T13:02:28;20.73;;;13.82;;
75793;SDS011;64418;47.536;19.074;2022-11-14T13:05:21;24.10;;;13.20;;
75793;SDS011;64418;47.536;19.074;2022-11-14T13:08:06;22.13;;;13.50;;
75793;SDS011;64418;47.536;19.074;2022-11-14T13:10:40;24.87;;;13.73;;
75793;SDS011;64418;47.536;19.074;2022-11-14T13:13:06;26.33;;;14.27;;
75793;SDS011;64418;47.536;19.074;2022-11-14T13:15:44;24.60;;;14.13;;
75793;SDS011;64418;47.536;19.074;2022-11-14T13:18:17;24.73;;;13.18;;
75793;SDS011;64418;47.536;19.074;2022-11-14T13:20:59;26.40;;;13.98;;
75793;SDS011;64418;47.536;19.074;2022-11-14T13:26:35;21.40;;;13.25;;
75793;SDS011;64418;47.536;19.074;2022-11-14T13:29:02;19.50;;;12.40;;
75793;SDS011;64418;47.536;19.074;2022-11-14T13:31:43;20.10;;;12.80;;
75793;SDS011;64418;47.536;19.074;2022-11-14T13:37:03;18.80;;;9.80;;
75793;SDS011;64418;47.536;19.074;2022-11-14T13:39:38;16.08;;;8.48;;
75793;SDS011;64418;47.536;19.074;2022-11-14T13:42:15;16.83;;;9.25;;
75793;SDS011;64418;47.536;19.074;2022-11-14T13:47:59;15.73;;;8.70;;
75793;SDS011;64418;47.536;19.074;2022-11-14T13:50:44;16.07;;;8.30;;
75793;SDS011;64418;47.536;19.074;2022-11-14T13:53:14;15.57;;;9.55;;
75793;SDS011;64418;47.536;19.074;2022-11-14T13:55:51;14.65;;;8.35;;
75793;SDS011;64418;47.536;19.074;2022-11-14T13:58:30;13.35;;;8.20;;
75793;SDS011;64418;47.536;19.074;2022-11-14T14:01:12;12.45;;;7.82;;
75793;SDS011;64418;47.536;19.074;2022-11-14T14:03:53;14.10;;;7.73;;
75793;SDS011;64418;47.536;19.074;2022-11-14T14:06:34;15.48;;;8.48;;
75793;SDS011;64418;47.536;19.074;2022-11-14T14:09:20;18.33;;;8.20;;
75793;SDS011;64418;47.536;19.074;2022-11-14T14:11:59;14.95;;;8.23;;
75793;SDS011;64418;47.536;19.074;2022-11-14T14:14:47;16.73;;;8.77;;
75793;SDS011;64418;47.536;19.074;2022-11-14T14:17:26;19.13;;;8.50;;
75793;SDS011;64418;47.536;19.074;2022-11-14T14:20:04;15.77;;;8.75;;
75793;SDS011;64418;47.536;19.074;2022-11-14T14:22:43;15.73;;;8.73;;
75793;SDS011;64418;47.536;19.074;2022-11-14T14:25:26;14.02;;;8.25;;
75793;SDS011;64418;47.536;19.074;2022-11-14T14:28:00;18.87;;;8.23;;
75793;SDS011;64418;47.536;19.074;2022-11-14T14:30:34;14.60;;;8.13;;
75793;SDS011;64418;47.536;19.074;2022-11-14T14:33:01;16.13;;;8.37;;
75793;SDS011;64418;47.536;19.074;2022-11-14T14:35:36;14.68;;;8.40;;
75793;SDS011;64418;47.536;19.074;2022-11-14T14:38:04;20.25;;;8.43;;
75793;SDS011;64418;47.536;19.074;2022-11-14T14:40:38;18.10;;;8.27;;
75793;SDS011;64418;47.536;19.074;2022-11-14T14:43:06;12.70;;;7.93;;
75793;SDS011;64418;47.536;19.074;2022-11-14T14:45:47;12.60;;;7.77;;